createdAt,value
2018-09-21T00:00:33.908Z,2.03
2018-09-21T00:03:02.718Z,1.80
2018-09-21T00:05:31.380Z,1.80
2018-09-21T00:08:00.093Z,2.10
2018-09-21T00:10:29.432Z,1.80
2018-09-21T00:12:58.838Z,1.80
2018-09-21T00:15:28.249Z,2.20
2018-09-21T00:17:57.596Z,1.73
2018-09-21T00:20:26.849Z,1.77
2018-09-21T00:22:55.963Z,1.87
2018-09-21T00:25:25.604Z,2.07
2018-09-21T00:27:54.664Z,1.93
2018-09-21T00:30:23.963Z,1.97
2018-09-21T00:32:52.991Z,1.70
2018-09-21T00:35:21.984Z,1.87
2018-09-21T00:37:51.280Z,1.87
2018-09-21T00:40:19.913Z,1.97
2018-09-21T00:42:49.036Z,1.80
2018-09-21T00:45:17.921Z,2.63
2018-09-21T00:47:46.688Z,2.00
2018-09-21T00:50:17.280Z,1.97
2018-09-21T00:52:46.464Z,1.97
2018-09-21T00:55:15.425Z,1.63
2018-09-21T00:57:44.603Z,1.77
2018-09-21T01:00:13.586Z,2.10
2018-09-21T01:02:42.383Z,2.13
2018-09-21T01:05:11.776Z,1.70
2018-09-21T01:07:40.673Z,1.60
2018-09-21T01:10:09.816Z,1.80
2018-09-21T01:12:38.697Z,1.70
2018-09-21T01:15:08.714Z,1.63
2018-09-21T01:17:38.144Z,2.20
2018-09-21T01:20:07.473Z,1.70
2018-09-21T01:22:36.271Z,2.20
2018-09-21T01:25:05.560Z,2.10
2018-09-21T01:27:34.815Z,1.63
2018-09-21T01:30:04.199Z,2.00
2018-09-21T01:32:32.912Z,1.50
2018-09-21T01:35:01.924Z,2.07
2018-09-21T01:37:30.763Z,1.93
2018-09-21T01:39:59.961Z,2.00
2018-09-21T01:42:28.984Z,1.47
2018-09-21T01:44:58.192Z,2.03
2018-09-21T01:47:26.607Z,2.10
2018-09-21T01:49:56.056Z,2.03
2018-09-21T01:52:25.307Z,2.00
2018-09-21T01:54:54.799Z,2.23
2018-09-21T01:57:23.725Z,1.80
2018-09-21T01:59:53.024Z,2.37
2018-09-21T02:02:21.737Z,1.73
2018-09-21T02:04:50.581Z,2.00
2018-09-21T02:07:19.303Z,2.10
2018-09-21T02:09:48.291Z,1.93
2018-09-21T02:12:17.180Z,2.20
2018-09-21T02:14:46.058Z,1.97
2018-09-21T02:17:15.036Z,1.70
2018-09-21T02:19:43.429Z,1.80
2018-09-21T02:22:12.664Z,1.83
2018-09-21T02:24:42.067Z,1.93
2018-09-21T02:27:11.348Z,1.87
2018-09-21T02:29:39.856Z,2.00
2018-09-21T02:32:08.837Z,2.13
2018-09-21T02:34:37.692Z,2.40
2018-09-21T02:37:06.988Z,1.87
2018-09-21T02:39:36.237Z,1.80
2018-09-21T02:42:05.457Z,1.80
2018-09-21T02:44:34.691Z,2.27
2018-09-21T02:47:03.748Z,2.37
2018-09-21T02:49:33.259Z,1.70
2018-09-21T02:52:02.656Z,1.97
2018-09-21T02:54:31.864Z,1.67
2018-09-21T02:57:00.784Z,1.83
2018-09-21T02:59:29.133Z,1.90
2018-09-21T03:01:58.179Z,1.93
2018-09-21T03:04:27.252Z,2.50
2018-09-21T03:06:55.596Z,1.63
2018-09-21T03:09:24.496Z,1.80
2018-09-21T03:11:53.480Z,2.00
2018-09-21T03:14:22.710Z,1.67
2018-09-21T03:16:51.411Z,1.60
2018-09-21T03:19:20.624Z,1.77
2018-09-21T03:21:49.696Z,1.40
2018-09-21T03:24:18.749Z,1.70
2018-09-21T03:26:47.440Z,1.80
2018-09-21T03:29:16.490Z,1.67
2018-09-21T03:31:45.324Z,1.83
2018-09-21T03:34:15.100Z,1.53
2018-09-21T03:36:44.029Z,1.60
2018-09-21T03:39:12.509Z,1.60
2018-09-21T03:41:41.912Z,1.60
2018-09-21T03:44:10.664Z,1.20
2018-09-21T03:46:40.037Z,1.63
2018-09-21T03:49:09.125Z,1.60
2018-09-21T03:51:38.110Z,1.20
2018-09-21T03:54:06.724Z,1.37
2018-09-21T03:56:36.104Z,1.60
2018-09-21T03:59:05.216Z,1.30
2018-09-21T04:01:34.189Z,1.10
2018-09-21T04:04:02.937Z,1.57
2018-09-21T04:06:32.376Z,1.40
2018-09-21T04:09:01.436Z,1.70
2018-09-21T04:11:30.881Z,1.60
2018-09-21T04:13:59.996Z,1.90
2018-09-21T04:16:29.256Z,2.10
2018-09-21T04:18:57.948Z,1.97
2018-09-21T04:21:26.700Z,2.00
2018-09-21T04:23:55.909Z,2.23
2018-09-21T04:26:24.796Z,2.40
2018-09-21T04:28:54.123Z,2.00
2018-09-21T04:31:23.081Z,2.00
2018-09-21T04:33:52.075Z,2.07
2018-09-21T04:36:21.477Z,2.10
2018-09-21T04:38:50.090Z,2.30
2018-09-21T04:41:18.744Z,2.30
2018-09-21T04:43:48.008Z,1.87
2018-09-21T04:46:17.295Z,2.40
2018-09-21T04:48:46.302Z,2.40
2018-09-21T04:51:15.677Z,2.40
2018-09-21T04:53:44.809Z,2.30
2018-09-21T04:56:14.197Z,2.40
2018-09-21T04:58:42.955Z,2.40
2018-09-21T05:01:12.052Z,2.50
2018-09-21T05:03:41.588Z,2.73
2018-09-21T05:06:10.835Z,2.60
2018-09-21T05:08:39.968Z,3.13
2018-09-21T05:11:08.360Z,3.60
2018-09-21T05:13:37.832Z,3.50
2018-09-21T05:16:07.304Z,2.67
2018-09-21T05:18:35.923Z,3.77
2018-09-21T05:21:05.224Z,3.03
2018-09-21T05:23:34.895Z,3.57
2018-09-21T05:26:04.392Z,3.53
2018-09-21T05:28:32.914Z,3.57
2018-09-21T05:31:02.119Z,3.30
2018-09-21T05:33:31.262Z,3.57
2018-09-21T05:36:00.623Z,3.77
2018-09-21T05:38:30.027Z,3.80
2018-09-21T05:40:59.604Z,4.20
2018-09-21T05:43:28.236Z,4.30
2018-09-21T05:45:57.163Z,3.90
2018-09-21T05:48:26.512Z,4.37
2018-09-21T05:50:55.166Z,4.83
2018-09-21T05:53:23.942Z,5.07
2018-09-21T05:55:53.401Z,4.80
2018-09-21T05:58:22.613Z,4.87
2018-09-21T06:00:51.808Z,4.90
2018-09-21T06:03:21.188Z,5.10
2018-09-21T06:05:49.857Z,5.30
2018-09-21T06:08:19.736Z,5.50
2018-09-21T06:10:48.864Z,5.20
2018-09-21T06:13:17.792Z,4.83
2018-09-21T06:15:46.249Z,4.57
2018-09-21T06:18:15.376Z,5.30
2018-09-21T06:20:44.629Z,4.97
2018-09-21T06:23:14.060Z,5.17
2018-09-21T06:25:42.801Z,5.47
2018-09-21T06:28:12.292Z,5.23
2018-09-21T06:30:42.006Z,5.00
2018-09-21T06:33:11.415Z,5.17
2018-09-21T06:35:40.788Z,5.00
2018-09-21T06:38:09.743Z,5.33
2018-09-21T06:40:38.456Z,5.53
2018-09-21T06:43:07.424Z,4.60
2018-09-21T06:45:36.276Z,5.47
2018-09-21T06:48:04.950Z,5.40
2018-09-21T06:50:33.741Z,4.97
2018-09-21T06:53:03.080Z,5.37
2018-09-21T06:55:32.408Z,5.50
2018-09-21T06:58:01.658Z,5.23
2018-09-21T07:00:31.123Z,5.40
2018-09-21T07:03:00.276Z,5.03
2018-09-21T07:05:29.301Z,5.40
2018-09-21T07:07:58.728Z,5.57
2018-09-21T07:10:27.217Z,5.20
2018-09-21T07:12:55.933Z,5.90
2018-09-21T07:15:24.946Z,5.53
2018-09-21T07:17:54.210Z,5.13
2018-09-21T07:20:23.266Z,5.67
2018-09-21T07:22:52.536Z,5.60
2018-09-21T07:25:21.208Z,5.07
2018-09-21T07:27:50.502Z,5.03
2018-09-21T07:30:19.220Z,4.80
2018-09-21T07:32:47.856Z,5.23
2018-09-21T07:35:16.960Z,5.03
2018-09-21T07:37:45.986Z,4.80
2018-09-21T07:40:15.026Z,5.03
2018-09-21T07:42:44.386Z,5.37
2018-09-21T07:45:14.122Z,4.63
2018-09-21T07:47:42.892Z,4.53
2018-09-21T07:50:12.279Z,4.90
2018-09-21T07:52:41.484Z,4.73
2018-09-21T07:55:10.144Z,5.30
2018-09-21T07:57:39.064Z,4.83
2018-09-21T08:00:08.472Z,4.73
2018-09-21T08:02:36.855Z,5.50
2018-09-21T08:05:05.513Z,3.80
2018-09-21T08:07:34.439Z,5.03
2018-09-21T08:10:03.765Z,4.47
2018-09-21T08:12:32.588Z,4.27
2018-09-21T08:15:00.924Z,4.77
2018-09-21T08:17:29.984Z,4.60
2018-09-21T08:19:59.082Z,5.00
2018-09-21T08:22:28.112Z,4.70
2018-09-21T08:24:57.039Z,4.30
2018-09-21T08:27:26.312Z,4.67
2018-09-21T08:29:55.368Z,4.50
2018-09-21T08:32:24.745Z,5.10
2018-09-21T08:34:53.688Z,4.70
2018-09-21T08:37:23.034Z,4.90
2018-09-21T08:39:52.011Z,4.70
2018-09-21T08:42:21.044Z,4.27
2018-09-21T08:44:50.232Z,4.30
2018-09-21T08:47:19.840Z,5.20
2018-09-21T08:49:48.874Z,4.80
2018-09-21T08:52:17.828Z,4.27
2018-09-21T08:54:46.618Z,4.33
2018-09-21T08:57:15.608Z,4.97
2018-09-21T08:59:44.272Z,5.33
2018-09-21T09:02:12.879Z,5.63
2018-09-21T09:04:41.958Z,5.30
2018-09-21T09:07:10.760Z,4.40
2018-09-21T09:09:40.287Z,4.93
2018-09-21T09:12:08.985Z,4.67
2018-09-21T09:14:38.094Z,5.50
2018-09-21T09:17:07.228Z,4.80
2018-09-21T09:19:35.867Z,4.70
2018-09-21T09:22:06.401Z,4.83
2018-09-21T09:24:35.299Z,5.57
2018-09-21T09:27:04.547Z,5.33
2018-09-21T09:29:33.912Z,5.03
2018-09-21T09:32:02.908Z,5.50
2018-09-21T09:34:31.644Z,5.93
2018-09-21T09:37:00.857Z,5.50
2018-09-21T09:39:29.472Z,5.40
2018-09-21T09:41:58.705Z,5.43
2018-09-21T09:44:27.851Z,5.37
2018-09-21T09:46:56.713Z,5.57
2018-09-21T09:49:25.316Z,5.60
2018-09-21T09:51:54.788Z,6.13
2018-09-21T09:54:23.710Z,5.97
2018-09-21T09:56:52.435Z,6.00
2018-09-21T09:59:20.881Z,6.13
2018-09-21T10:01:50.277Z,6.53
2018-09-21T10:04:19.173Z,5.20
2018-09-21T10:06:48.598Z,5.23
2018-09-21T10:09:17.697Z,5.57
2018-09-21T10:11:46.964Z,5.47
2018-09-21T10:14:15.920Z,5.60
2018-09-21T10:16:45.008Z,6.30
2018-09-21T10:19:14.125Z,5.13
2018-09-21T10:21:43.180Z,6.37
2018-09-21T10:24:12.628Z,5.90
2018-09-21T10:26:41.732Z,5.60
2018-09-21T10:29:10.898Z,5.63
2018-09-21T10:31:40.029Z,5.83
2018-09-21T10:34:09.155Z,5.93
2018-09-21T10:36:38.482Z,5.67
2018-09-21T10:39:08.202Z,6.37
2018-09-21T10:41:37.883Z,5.03
2018-09-21T10:44:07.076Z,5.80
2018-09-21T10:46:36.303Z,5.23
2018-09-21T10:49:05.620Z,6.20
2018-09-21T10:51:34.257Z,5.60
2018-09-21T10:54:03.392Z,5.23
2018-09-21T10:56:32.416Z,5.70
2018-09-21T10:59:01.720Z,5.83
2018-09-21T11:01:30.656Z,5.93
2018-09-21T11:03:59.944Z,5.23
2018-09-21T11:06:28.695Z,5.80
2018-09-21T11:08:57.710Z,5.60
2018-09-21T11:11:27.263Z,5.33
2018-09-21T11:13:56.031Z,5.15
2018-09-21T11:16:25.069Z,5.60
2018-09-21T11:18:54.248Z,5.33
2018-09-21T11:21:23.408Z,4.90
2018-09-21T11:23:52.844Z,5.27
2018-09-21T11:26:22.248Z,5.20
2018-09-21T11:28:50.815Z,5.00
2018-09-21T11:31:20.598Z,5.07
2018-09-21T11:33:49.180Z,5.30
2018-09-21T11:36:18.281Z,6.30
2018-09-21T11:38:46.580Z,5.50
2018-09-21T11:41:15.896Z,5.40
2018-09-21T11:43:45.684Z,5.00
2018-09-21T11:46:14.805Z,5.57
2018-09-21T11:48:44.241Z,5.23
2018-09-21T11:51:13.531Z,5.63
2018-09-21T11:53:42.741Z,5.10
2018-09-21T11:56:11.448Z,5.57
2018-09-21T11:58:40.675Z,5.10
2018-09-21T12:01:09.824Z,4.80
2018-09-21T12:03:38.598Z,5.30
2018-09-21T12:06:08.204Z,5.10
2018-09-21T12:08:38.369Z,4.70
2018-09-21T12:11:07.278Z,5.77
2018-09-21T12:13:37.251Z,5.33
2018-09-21T12:16:06.277Z,5.73
2018-09-21T12:18:35.427Z,5.23
2018-09-21T12:21:04.679Z,5.10
2018-09-21T12:23:33.305Z,5.67
2018-09-21T12:26:03.195Z,5.33
2018-09-21T12:28:32.397Z,5.43
2018-09-21T12:31:01.529Z,5.83
2018-09-21T12:33:30.552Z,5.43
2018-09-21T12:35:59.312Z,5.10
2018-09-21T12:38:28.695Z,5.30
2018-09-21T12:40:57.890Z,5.50
2018-09-21T12:43:27.088Z,5.77
2018-09-21T12:45:55.920Z,5.53
2018-09-21T12:48:24.643Z,5.23
2018-09-21T12:50:53.460Z,5.60
2018-09-21T12:53:22.455Z,4.60
2018-09-21T12:55:51.312Z,5.30
2018-09-21T12:58:20.018Z,5.03
2018-09-21T13:00:50.609Z,5.67
2018-09-21T13:03:20.307Z,5.20
2018-09-21T13:05:53.303Z,5.17
2018-09-21T13:08:22.507Z,5.47
2018-09-21T13:10:51.433Z,5.00
2018-09-21T13:13:20.377Z,4.90
2018-09-21T13:15:49.212Z,5.70
2018-09-21T13:18:18.136Z,5.92
2018-09-21T13:20:47.348Z,5.25
2018-09-21T13:23:16.258Z,5.28
2018-09-21T13:25:44.578Z,5.60
2018-09-21T13:28:13.660Z,5.40
2018-09-21T13:30:42.924Z,5.85
2018-09-21T13:33:11.504Z,6.10
2018-09-21T13:35:40.752Z,6.67
2018-09-21T13:38:09.170Z,6.33
2018-09-21T13:40:38.434Z,6.67
2018-09-21T13:43:07.320Z,5.72
2018-09-21T13:45:36.104Z,7.50
2018-09-21T13:48:05.244Z,6.80
2018-09-21T13:50:34.430Z,7.05
2018-09-21T13:53:03.814Z,7.55
2018-09-21T13:55:33.277Z,7.12
2018-09-21T13:58:01.645Z,7.87
2018-09-21T14:00:30.528Z,6.65
2018-09-21T14:02:59.268Z,7.70
2018-09-21T14:05:28.268Z,7.05
2018-09-21T14:07:57.243Z,7.25
2018-09-21T14:10:26.808Z,7.90
2018-09-21T14:12:56.152Z,7.45
2018-09-21T14:15:25.479Z,7.53
2018-09-21T14:17:54.406Z,8.78
2018-09-21T14:20:22.820Z,7.92
2018-09-21T14:22:52.292Z,8.28
2018-09-21T14:25:21.121Z,8.53
2018-09-21T14:27:49.904Z,7.28
2018-09-21T14:30:19.104Z,7.60
2018-09-21T14:32:48.310Z,8.03
2018-09-21T14:35:16.740Z,7.78
2018-09-21T14:37:45.491Z,8.05
2018-09-21T14:40:14.900Z,8.38
2018-09-21T14:42:43.969Z,7.07
2018-09-21T14:45:12.784Z,7.50
2018-09-21T14:47:41.331Z,7.87
2018-09-21T14:50:10.833Z,6.80
2018-09-21T14:52:40.072Z,8.13
2018-09-21T14:55:09.472Z,8.90
2018-09-21T14:57:38.364Z,7.40
2018-09-21T15:00:07.393Z,7.10
2018-09-21T15:02:36.465Z,7.73
2018-09-21T15:05:05.552Z,7.60
2018-09-21T15:07:33.984Z,6.90
2018-09-21T15:10:03.044Z,6.70
2018-09-21T15:12:31.756Z,7.55
2018-09-21T15:15:00.468Z,6.97
2018-09-21T15:17:29.244Z,7.55
2018-09-21T15:19:58.090Z,7.27
2018-09-21T15:22:26.816Z,7.60
2018-09-21T15:24:55.705Z,7.47
2018-09-21T15:27:25.224Z,7.73
2018-09-21T15:29:53.856Z,8.30
2018-09-21T15:32:22.852Z,7.72
2018-09-21T15:34:51.680Z,8.10
2018-09-21T15:37:21.123Z,7.67
2018-09-21T15:39:50.014Z,7.80
2018-09-21T15:42:18.964Z,7.73
2018-09-21T15:44:47.644Z,8.00
2018-09-21T15:47:16.580Z,8.30
2018-09-21T15:49:45.564Z,8.37
2018-09-21T15:52:15.100Z,8.00
2018-09-21T15:54:44.202Z,7.70
2018-09-21T15:57:12.880Z,7.97
2018-09-21T15:59:41.872Z,7.90
2018-09-21T16:02:10.799Z,7.37
2018-09-21T16:04:39.616Z,7.60
2018-09-21T16:07:08.639Z,7.73
2018-09-21T16:09:37.864Z,8.27
2018-09-21T16:12:06.955Z,7.70
2018-09-21T16:14:36.748Z,8.57
2018-09-21T16:17:05.817Z,7.70
2018-09-21T16:19:34.936Z,7.20
2018-09-21T16:22:04.278Z,7.43
2018-09-21T16:24:33.524Z,7.57
2018-09-21T16:27:03.528Z,7.13
2018-09-21T16:29:32.519Z,6.70
2018-09-21T16:32:01.901Z,7.47
2018-09-21T16:34:31.660Z,7.10
2018-09-21T16:37:00.698Z,7.00
2018-09-21T16:39:30.128Z,7.50
2018-09-21T16:41:59.121Z,7.30
2018-09-21T16:44:27.868Z,6.97
2018-09-21T16:46:56.879Z,7.20
2018-09-21T16:49:25.805Z,7.50
2018-09-21T16:51:54.728Z,7.13
2018-09-21T16:54:24.025Z,6.77
2018-09-21T16:56:53.147Z,6.57
2018-09-21T16:59:21.937Z,6.83
2018-09-21T17:01:51.408Z,6.90
2018-09-21T17:04:20.636Z,7.27
2018-09-21T17:06:49.995Z,6.53
2018-09-21T17:09:18.622Z,7.60
2018-09-21T17:11:47.276Z,7.57
2018-09-21T17:14:16.808Z,7.47
2018-09-21T17:16:45.942Z,7.93
2018-09-21T17:19:15.343Z,7.93
2018-09-21T17:21:44.656Z,7.60
2018-09-21T17:24:13.789Z,8.30
2018-09-21T17:26:43.058Z,8.97
2018-09-21T17:29:12.746Z,8.00
2018-09-21T17:31:42.946Z,8.10
2018-09-21T17:34:11.909Z,8.87
2018-09-21T17:36:41.395Z,8.03
2018-09-21T17:39:11.817Z,8.03
2018-09-21T17:41:41.702Z,7.80
2018-09-21T17:44:11.149Z,7.90
2018-09-21T17:46:40.284Z,7.40
2018-09-21T17:49:09.415Z,8.10
2018-09-21T17:51:38.533Z,8.27
2018-09-21T17:54:07.176Z,7.77
2018-09-21T17:56:36.036Z,7.90
2018-09-21T17:59:04.519Z,7.03
2018-09-21T18:01:34.305Z,7.33
2018-09-21T18:04:04.558Z,7.50
2018-09-21T18:06:33.654Z,7.10
2018-09-21T18:09:03.434Z,7.47
2018-09-21T18:11:32.318Z,7.40
2018-09-21T18:14:02.032Z,7.50
2018-09-21T18:16:31.046Z,7.33
2018-09-21T18:19:00.690Z,7.57
2018-09-21T18:21:30.032Z,7.43
2018-09-21T18:23:58.842Z,7.33
2018-09-21T18:26:27.754Z,7.73
2018-09-21T18:28:57.142Z,6.13
2018-09-21T18:31:26.543Z,5.53
2018-09-21T18:33:55.839Z,4.27
2018-09-21T18:36:25.486Z,2.43
2018-09-21T18:38:54.664Z,2.20
2018-09-21T18:41:24.491Z,2.37
2018-09-21T18:43:53.711Z,2.00
2018-09-21T18:46:23.399Z,2.10
2018-09-21T18:48:53.276Z,2.30
2018-09-21T18:51:22.874Z,1.47
2018-09-21T18:53:53.003Z,1.87
2018-09-21T18:56:22.457Z,1.60
2018-09-21T18:58:51.923Z,1.87
2018-09-21T19:01:22.236Z,2.03
2018-09-21T19:03:51.184Z,1.70
2018-09-21T19:06:20.872Z,1.70
2018-09-21T19:08:50.534Z,1.60
2018-09-21T19:11:19.999Z,1.40
2018-09-21T19:13:49.695Z,1.70
2018-09-21T19:16:19.605Z,1.47
2018-09-21T19:18:50.357Z,2.13
2018-09-21T19:21:19.952Z,1.50
2018-09-21T19:23:49.052Z,1.40
2018-09-21T19:26:19.085Z,1.97
2018-09-21T19:28:48.972Z,1.50
2018-09-21T19:31:18.545Z,1.60
2018-09-21T19:33:49.005Z,1.37
2018-09-21T19:36:19.179Z,1.60
2018-09-21T19:38:49.135Z,1.27
2018-09-21T19:41:18.951Z,1.60
2018-09-21T19:43:48.716Z,1.10
2018-09-21T19:46:18.006Z,1.17
2018-09-21T19:48:47.317Z,1.13
2018-09-21T19:51:17.393Z,1.10
2018-09-21T19:53:47.467Z,1.47
2018-09-21T19:56:17.992Z,1.50
2018-09-21T19:58:46.843Z,1.17
2018-09-21T20:01:16.605Z,1.20
2018-09-21T20:03:45.670Z,1.10
2018-09-21T20:06:15.312Z,1.30
2018-09-21T20:08:45.409Z,1.40
2018-09-21T20:11:15.043Z,1.63
2018-09-21T20:13:44.913Z,1.60
2018-09-21T20:16:14.896Z,1.30
2018-09-21T20:18:44.187Z,1.30
2018-09-21T20:21:13.451Z,1.23
2018-09-21T20:23:43.054Z,1.27
2018-09-21T20:26:13.318Z,1.80
2018-09-21T20:28:42.693Z,1.30
2018-09-21T20:31:18.278Z,1.20
2018-09-21T20:33:47.588Z,1.27
2018-09-21T20:36:17.372Z,1.30
2018-09-21T20:38:47.373Z,1.50
2018-09-21T20:41:16.756Z,1.30
2018-09-21T20:43:45.891Z,1.53
2018-09-21T20:46:16.223Z,1.43
2018-09-21T20:48:45.691Z,1.47
2018-09-21T20:51:16.347Z,1.63
2018-09-21T20:53:47.137Z,1.47
2018-09-21T20:56:18.084Z,1.80
2018-09-21T20:58:47.802Z,1.10
2018-09-21T21:01:17.153Z,1.30
2018-09-21T21:03:46.619Z,1.13
2018-09-21T21:06:16.016Z,1.10
2018-09-21T21:08:45.214Z,1.30
2018-09-21T21:11:14.199Z,1.80
2018-09-21T21:13:43.049Z,1.50
2018-09-21T21:16:11.836Z,1.20
2018-09-21T21:18:41.186Z,1.47
2018-09-21T21:21:10.244Z,1.70
2018-09-21T21:23:39.393Z,1.90
2018-09-21T21:26:09.149Z,1.57
2018-09-21T21:28:38.580Z,1.20
2018-09-21T21:31:08.428Z,1.20
2018-09-21T21:33:36.828Z,1.80
2018-09-21T21:36:05.968Z,1.93
2018-09-21T21:38:35.379Z,1.53
2018-09-21T21:41:04.472Z,1.30
2018-09-21T21:43:33.696Z,1.40
2018-09-21T21:46:02.724Z,1.40
2018-09-21T21:48:32.467Z,1.60
2018-09-21T21:51:01.655Z,1.30
2018-09-21T21:53:30.832Z,1.60
2018-09-21T21:55:59.552Z,1.50
2018-09-21T21:58:28.376Z,1.90
2018-09-21T22:01:02.852Z,1.50
2018-09-21T22:03:32.013Z,1.43
2018-09-21T22:06:00.716Z,1.73
2018-09-21T22:08:29.884Z,1.80
2018-09-21T22:10:58.563Z,2.13
2018-09-21T22:13:32.975Z,2.37
2018-09-21T22:16:02.189Z,1.70
2018-09-21T22:18:31.371Z,2.43
2018-09-21T22:21:00.387Z,2.13
2018-09-21T22:23:30.580Z,2.00
2018-09-21T22:25:59.287Z,2.53
2018-09-21T22:28:27.878Z,1.70
2018-09-21T22:30:57.663Z,1.70
2018-09-21T22:33:27.687Z,1.83
2018-09-21T22:35:57.032Z,1.93
2018-09-21T22:38:26.304Z,2.23
2018-09-21T22:40:55.784Z,1.60
2018-09-21T22:43:24.752Z,2.40
2018-09-21T22:45:53.413Z,2.00
2018-09-21T22:48:22.188Z,1.60
2018-09-21T22:50:51.487Z,2.17
2018-09-21T22:53:20.439Z,2.20
2018-09-21T22:55:48.992Z,2.00
2018-09-21T22:58:17.676Z,2.03
2018-09-21T23:00:46.324Z,1.90
2018-09-21T23:03:14.992Z,2.27
2018-09-21T23:05:44.052Z,1.70
2018-09-21T23:08:13.348Z,2.50
2018-09-21T23:10:42.402Z,1.83
2018-09-21T23:13:11.472Z,2.00
2018-09-21T23:15:40.628Z,1.83
2018-09-21T23:18:09.652Z,2.10
2018-09-21T23:20:38.976Z,1.90
2018-09-21T23:23:08.211Z,2.50
2018-09-21T23:25:37.352Z,2.00
2018-09-21T23:28:06.929Z,2.30
2018-09-21T23:30:35.599Z,2.23
2018-09-21T23:33:04.596Z,2.00
2018-09-21T23:35:33.948Z,2.40
2018-09-21T23:38:03.032Z,1.90
2018-09-21T23:40:31.713Z,2.07
2018-09-21T23:43:00.683Z,1.97
2018-09-21T23:45:30.184Z,2.10
2018-09-21T23:47:59.375Z,2.03
2018-09-21T23:50:28.498Z,1.60
2018-09-21T23:52:57.998Z,2.40
2018-09-21T23:55:26.828Z,1.80
2018-09-21T23:57:55.665Z,2.00
